Time;durP1;ratioP1;P1;durP2;ratioP2;P2;SDS_P1;SDS_P2;PMS_P1;PMS_P2;Temp;Humidity;BMP_temperature;BMP_pressure;BME280_temperature;BME280_humidity;BME280_pressure;Samples;Min_cycle;Max_cycle;Signal;HPM_P1;HPM_P2
2022/08/18 10:07:38;;;;;;;11.23;4.45;;;;;;;;;;4817290;26;20053;-50
2022/08/18 10:10:41;;;;;;;9.48;3.60;;;20.80;91.80;;;;;;5056529;28;20065;-50
2022/08/18 10:13:32;;;;;;;6.57;3.40;;;20.80;92.20;;;;;;5083214;22;20047;-54
2022/08/18 10:16:10;;;;;;;8.30;3.30;;;20.70;91.90;;;;;;5091347;28;20385;-56
2022/08/18 10:19:11;;;;;;;6.32;3.30;;;20.70;92.20;;;;;;5094556;28;20024;-57
2022/08/18 10:21:54;;;;;;;9.98;3.40;;;21.10;91.50;;;;;;5022610;28;20517;-54
2022/08/18 10:24:22;;;;;;;6.40;3.00;;;21.10;91.40;;;;;;5053758;28;20036;-54
2022/08/18 10:26:48;;;;;;;5.85;3.10;;;21.30;90.90;;;;;;5048932;28;20045;-55
2022/08/18 10:29:22;;;;;;;6.88;2.60;;;21.40;90.60;;;;;;5054038;28;20118;-52
2022/08/18 10:31:54;;;;;;;5.40;2.47;;;21.50;90.50;;;;;;5053832;28;20079;-55
2022/08/18 10:34:42;;;;;;;5.20;2.40;;;21.60;90.30;;;;;;5053857;28;20047;-53
2022/08/18 10:37:12;;;;;;;;;;;21.60;90.20;;;;;;5057387;28;20436;-50
2022/08/18 10:39:37;;;;;;;8.95;2.78;;;21.60;90.20;;;;;;5073260;28;19967;-52
2022/08/18 10:42:09;;;;;;;4.05;2.42;;;21.70;90.30;;;;;;5065252;28;20094;-53
2022/08/18 10:44:42;;;;;;;7.28;3.08;;;21.70;90.20;;;;;;5047133;28;20495;-53
2022/08/18 10:47:09;;;;;;;5.28;2.70;;;21.80;90.30;;;;;;5072764;28;20033;-54
2022/08/18 10:49:37;;;;;;;7.78;3.05;;;21.80;90.20;;;;;;5072785;28;20398;-52
2022/08/18 10:52:24;;;;;;;19.88;3.78;;;21.80;90.20;;;;;;5073114;28;20032;-55
2022/08/18 10:54:58;;;;;;;6.47;2.70;;;21.90;90.20;;;;;;5071541;28;20523;-53
2022/08/18 10:57:53;;;;;;;38.05;30.17;;;21.90;90.00;;;;;;5052893;28;20028;-53
2022/08/18 11:00:21;;;;;;;4.88;2.33;;;21.90;90.40;;;;;;5072525;28;20016;-53
2022/08/18 11:03:12;;;;;;;3.45;2.30;;;21.80;90.10;;;;;;5072355;28;20032;-57
2022/08/18 11:05:38;;;;;;;5.30;3.47;;;21.80;90.30;;;;;;5068162;28;20104;-57
2022/08/18 11:08:06;;;;;;;6.00;3.10;;;21.90;90.20;;;;;;5069497;28;20482;-54
2022/08/18 11:10:47;;;;;;;6.68;2.75;;;21.90;90.30;;;;;;5069474;28;20612;-57
2022/08/18 11:13:47;;;;;;;5.10;2.72;;;22.10;90.20;;;;;;5053162;28;20364;-55
2022/08/18 11:16:17;;;;;;;3.30;2.28;;;22.10;90.00;;;;;;5071383;28;20536;-53
2022/08/18 11:18:47;;;;;;;3.80;2.55;;;22.00;89.90;;;;;;5071052;28;20027;-55
2022/08/18 11:21:31;;;;;;;3.72;2.60;;;22.00;90.00;;;;;;5419528;22;20041;-57
2022/08/18 11:24:06;;;;;;;4.55;2.50;;;22.20;90.20;;;;;;5070285;28;20123;-58
2022/08/18 11:26:39;;;;;;;6.40;2.28;;;22.40;90.00;;;;;;5070756;28;20039;-57
2022/08/18 11:29:43;;;;;;;2.25;1.80;;;22.50;89.50;;;;;;5063146;28;20106;-57
2022/08/18 11:32:38;;;;;;;8.48;2.05;;;22.40;88.60;;;;;;4967937;28;20031;-57
2022/08/18 11:35:13;;;;;;;2.63;1.88;;;22.40;88.40;;;;;;4969783;28;20053;-57
2022/08/18 11:37:52;;;;;;;5.45;2.53;;;22.50;89.50;;;;;;5029944;28;20033;-59
2022/08/18 11:40:18;;;;;;;4.68;2.50;;;22.50;88.90;;;;;;5050654;28;20582;-56
2022/08/18 11:43:05;;;;;;;4.50;2.45;;;22.70;89.00;;;;;;5051021;28;20112;-59
2022/08/18 11:45:51;;;;;;;3.40;2.20;;;22.80;88.40;;;;;;5050882;28;20025;-59
2022/08/18 11:48:25;;;;;;;5.43;2.05;;;23.10;88.60;;;;;;5049270;28;20024;-59
2022/08/18 11:50:54;;;;;;;4.15;2.30;;;23.40;87.20;;;;;;5051386;28;20453;-59
2022/08/18 11:53:31;;;;;;;3.70;1.92;;;23.60;87.60;;;;;;5052018;28;20025;-59
2022/08/18 11:56:13;;;;;;;5.95;2.33;;;23.90;86.90;;;;;;5052017;28;20036;-57
2022/08/18 11:59:05;;;;;;;4.50;2.05;;;23.90;86.20;;;;;;5051620;28;20390;-58
2022/08/18 12:01:34;;;;;;;4.00;1.92;;;23.90;85.00;;;;;;5051501;28;20558;-57
2022/08/18 12:04:16;;;;;;;4.22;2.00;;;23.90;84.50;;;;;;5051707;28;20037;-58
2022/08/18 12:07:00;;;;;;;3.05;2.45;;;23.80;83.50;;;;;;5052060;28;20025;-55
2022/08/18 12:09:28;;;;;;;4.63;2.53;;;23.60;83.80;;;;;;5051948;28;20039;-58
2022/08/18 12:11:59;;;;;;;4.25;2.35;;;23.40;84.00;;;;;;5051706;28;20025;-59
2022/08/18 12:14:28;;;;;;;5.10;2.28;;;23.20;84.30;;;;;;5034046;28;20050;-56
2022/08/18 12:16:54;;;;;;;3.08;2.22;;;23.10;84.70;;;;;;5051287;28;20021;-59
2022/08/18 12:19:21;;;;;;;6.87;2.30;;;23.10;85.20;;;;;;5051656;28;20033;-60
2022/08/18 12:21:52;;;;;;;;;;;23.10;84.90;;;;;;5051967;28;20767;-60
2022/08/18 12:24:29;;;;;;;5.07;2.38;;;23.00;85.70;;;;;;5051230;28;20329;-58
2022/08/18 12:26:55;;;;;;;;;;;22.90;85.70;;;;;;5051892;28;20542;-60
2022/08/18 12:29:21;;;;;;;5.28;2.55;;;22.90;85.90;;;;;;5051527;28;20370;-60
2022/08/18 12:31:50;;;;;;;3.60;2.63;;;22.70;86.40;;;;;;5033602;28;20075;-60
2022/08/18 12:34:18;;;;;;;3.92;2.30;;;22.70;86.60;;;;;;5051702;28;20033;-60
2022/08/18 12:36:45;;;;;;;3.78;1.75;;;22.70;87.10;;;;;;5033275;28;20541;-60
2022/08/18 12:39:10;;;;;;;4.40;2.40;;;22.70;87.50;;;;;;5051470;28;20024;-58
2022/08/18 12:41:36;;;;;;;3.63;2.60;;;22.90;86.80;;;;;;5051483;28;20104;-60
2022/08/18 12:44:02;;;;;;;6.77;2.73;;;22.90;85.80;;;;;;5050283;28;20086;-60
2022/08/18 12:46:29;;;;;;;3.47;2.17;;;23.00;84.60;;;;;;5051108;28;20024;-60
2022/08/18 12:48:55;;;;;;;3.90;2.17;;;23.10;85.10;;;;;;5044323;28;20025;-59
2022/08/18 12:51:21;;;;;;;4.53;2.60;;;23.20;86.00;;;;;;5031868;28;20032;-60
2022/08/18 12:53:47;;;;;;;3.80;2.85;;;23.40;85.00;;;;;;5050708;28;20490;-59
2022/08/18 12:56:24;;;;;;;3.83;2.80;;;23.30;83.10;;;;;;5033539;28;20036;-59
2022/08/18 12:58:52;;;;;;;4.10;2.25;;;23.30;84.60;;;;;;5036882;28;20075;-58
2022/08/18 13:01:19;;;;;;;3.22;2.08;;;23.40;83.80;;;;;;5040366;28;20564;-60
2022/08/18 13:03:45;;;;;;;3.50;1.67;;;23.50;82.60;;;;;;5039993;28;20025;-60
2022/08/18 13:06:12;;;;;;;2.78;1.92;;;23.60;82.60;;;;;;5003461;28;20052;-60
2022/08/18 13:08:38;;;;;;;3.45;2.38;;;23.80;82.40;;;;;;5048473;28;20070;-60
2022/08/18 13:11:09;;;;;;;2.07;1.90;;;23.80;81.20;;;;;;5050341;28;20112;-60
2022/08/18 13:13:36;;;;;;;3.53;2.17;;;23.70;80.10;;;;;;5020245;28;20021;-59
2022/08/18 13:16:04;;;;;;;9.32;3.35;;;23.60;81.30;;;;;;5027660;28;20593;-58
2022/08/18 13:18:30;;;;;;;3.90;2.28;;;23.50;81.20;;;;;;5027311;28;20060;-58
2022/08/18 13:20:59;;;;;;;5.20;2.63;;;23.50;82.30;;;;;;5031654;28;20021;-60
2022/08/18 13:23:26;;;;;;;6.07;3.00;;;23.50;82.20;;;;;;5032459;28;20028;-60
2022/08/18 13:25:52;;;;;;;5.85;2.40;;;23.50;82.40;;;;;;5038025;28;20037;-57
2022/08/18 13:28:18;;;;;;;6.32;2.85;;;23.60;81.70;;;;;;5040572;28;20032;-59
2022/08/18 13:30:45;;;;;;;4.47;2.73;;;23.60;82.10;;;;;;5028423;28;20462;-54
2022/08/18 13:33:11;;;;;;;5.75;3.08;;;23.70;82.40;;;;;;5029822;28;20542;-58
2022/08/18 13:35:37;;;;;;;4.30;2.72;;;23.80;82.70;;;;;;5040203;28;20082;-60
2022/08/18 13:38:04;;;;;;;5.87;3.33;;;23.80;82.40;;;;;;5022960;28;20029;-57
2022/08/18 13:40:30;;;;;;;5.70;3.15;;;23.90;82.00;;;;;;5052626;28;20025;-64
2022/08/18 13:42:56;;;;;;;9.50;6.40;;;24.00;81.90;;;;;;5046386;28;20478;-65
2022/08/18 13:45:22;;;;;;;10.77;9.67;;;24.10;81.30;;;;;;5048043;28;20025;-65
2022/08/18 13:47:48;;;;;;;9.37;3.83;;;24.40;81.20;;;;;;5052268;28;20087;-65
2022/08/18 13:50:15;;;;;;;10.70;3.70;;;24.70;79.60;;;;;;5041551;28;20263;-65
2022/08/18 13:52:41;;;;;;;;;;;;;;;;;;5042369;28;20436;-65
2022/08/18 13:55:13;;;;;;;6.82;3.35;;;;;;;;;;5053198;28;20025;-64
2022/08/18 13:57:46;;;;;;;4.93;2.40;;;25.30;78.70;;;;;;5054405;28;20082;-64
2022/08/18 14:00:18;;;;;;;4.38;2.42;;;28.60;67.50;;;;;;5054166;28;20021;-62
2022/08/18 14:02:49;;;;;;;3.83;2.28;;;28.50;66.60;;;;;;5045103;28;20105;-62
2022/08/18 14:05:16;;;;;;;5.78;2.67;;;28.60;65.70;;;;;;5041635;28;20095;-63
2022/08/18 14:07:43;;;;;;;5.47;2.85;;;28.90;66.80;;;;;;5044317;28;20041;-63
2022/08/18 14:10:08;;;;;;;;;;;;;;;;;;5052771;28;20025;-63
2022/08/18 14:12:36;;;;;;;4.75;2.45;;;;;;;;;;5052067;28;19908;-63
2022/08/18 14:15:04;;;;;;;2.97;2.58;;;;;;;;;;5053041;28;20099;-63
2022/08/18 14:17:30;;;;;;;5.55;2.97;;;28.70;64.50;;;;;;5043734;28;20031;-62
2022/08/18 14:28:09;;;;;;;6.20;2.95;;;26.60;68.60;;;;;;5046113;28;20071;-62
2022/08/18 14:30:36;;;;;;;8.27;3.15;;;26.10;70.90;;;;;;5053471;28;20052;-54
2022/08/18 14:33:06;;;;;;;6.13;3.10;;;25.90;72.30;;;;;;5023346;28;20029;-54
2022/08/18 14:35:33;;;;;;;7.90;3.47;;;25.80;71.60;;;;;;5046484;28;20055;-53
2022/08/18 14:38:00;;;;;;;4.50;2.92;;;25.70;71.80;;;;;;5053488;28;20021;-57
2022/08/18 14:40:31;;;;;;;5.00;3.95;;;25.70;72.40;;;;;;5053025;28;20023;-56
2022/08/18 14:42:57;;;;;;;4.53;3.10;;;25.70;72.20;;;;;;5044737;28;20057;-54
2022/08/18 14:45:24;;;;;;;5.50;3.25;;;25.50;72.70;;;;;;5048214;28;20021;-56
2022/08/18 14:47:52;;;;;;;;;;;25.50;74.10;;;;;;5053897;28;20029;-52
2022/08/18 14:50:22;;;;;;;6.68;3.58;;;25.60;74.10;;;;;;5020565;28;20383;-57
2022/08/18 14:52:48;;;;;;;4.28;3.38;;;25.70;74.10;;;;;;5032698;28;20479;-59
2022/08/18 14:55:16;;;;;;;5.72;3.53;;;25.80;91.40;;;;;;5051771;28;20025;-57
2022/08/18 14:57:42;;;;;;;10.05;4.68;;;25.70;73.40;;;;;;5042156;28;20025;-58
2022/08/18 15:00:14;;;;;;;4.23;3.47;;;25.80;73.30;;;;;;5047416;28;20030;-59
2022/08/18 15:02:42;;;;;;;5.40;3.35;;;25.90;72.20;;;;;;5046168;28;20275;-57
2022/08/18 15:05:09;;;;;;;4.55;3.35;;;25.90;72.50;;;;;;5044633;28;20029;-59
2022/08/18 15:07:38;;;;;;;3.03;2.40;;;26.40;72.50;;;;;;5044123;28;20029;-56
2022/08/18 15:10:06;;;;;;;4.40;3.05;;;26.80;70.20;;;;;;5046433;28;20033;-58
2022/08/18 15:12:32;;;;;;;5.55;3.30;;;;;;;;;;5015002;28;20407;-59
2022/08/18 15:14:58;;;;;;;4.32;3.08;;;26.90;69.40;;;;;;5037472;28;20030;-55
2022/08/18 15:17:26;;;;;;;5.47;3.25;;;29.40;63.40;;;;;;5041709;28;20029;-56
2022/08/18 15:19:52;;;;;;;6.57;4.15;;;29.40;61.00;;;;;;5045457;28;20021;-56
2022/08/18 15:27:50;;;;;;;7.93;3.55;;;27.50;67.40;;;;;;5042803;28;20092;-59
2022/08/18 15:30:17;;;;;;;7.75;3.80;;;28.70;66.60;;;;;;5038920;28;20029;-55
2022/08/18 15:32:45;;;;;;;5.15;3.45;;;28.90;62.60;;;;;;5047343;28;20022;-60
2022/08/18 15:35:18;;;;;;;4.45;3.47;;;28.60;63.40;;;;;;5045297;28;20063;-57
2022/08/18 15:37:48;;;;;;;5.75;3.88;;;28.10;65.60;;;;;;5040849;28;20051;-58
2022/08/18 15:40:19;;;;;;;6.60;4.10;;;27.60;66.00;;;;;;5050917;28;20033;-59
2022/08/18 15:42:55;;;;;;;9.05;3.92;;;27.00;68.00;;;;;;5043817;28;20403;-58
2022/08/18 15:45:37;;;;;;;6.45;3.83;;;26.50;69.10;;;;;;5015374;28;20471;-60
2022/08/18 15:48:04;;;;;;;5.30;3.70;;;26.30;70.00;;;;;;5023932;28;20039;-58
2022/08/18 15:50:30;;;;;;;4.95;3.40;;;25.90;71.20;;;;;;5026914;28;20033;-59
2022/08/18 15:53:02;;;;;;;4.77;3.90;;;25.80;72.10;;;;;;5041076;28;20071;-59
2022/08/18 15:55:30;;;;;;;6.50;3.60;;;25.60;72.70;;;;;;5051807;28;20029;-59
2022/08/18 15:57:57;;;;;;;4.78;4.20;;;25.50;73.50;;;;;;5019533;28;20112;-59
2022/08/18 16:00:24;;;;;;;6.35;4.72;;;25.40;73.90;;;;;;5040077;28;20131;-56
2022/08/18 16:02:57;;;;;;;7.05;4.20;;;25.40;74.50;;;;;;5048475;28;20025;-59
2022/08/18 16:05:26;;;;;;;5.40;4.80;;;25.30;74.40;;;;;;5051811;28;20037;-58
2022/08/18 16:07:54;;;;;;;8.55;4.53;;;25.10;75.20;;;;;;5051335;28;20025;-56
2022/08/18 16:10:22;;;;;;;6.43;3.92;;;25.00;75.40;;;;;;5051357;28;20483;-59
2022/08/18 16:12:49;;;;;;;6.40;3.70;;;25.00;76.30;;;;;;5045599;28;20021;-60
2022/08/18 16:15:21;;;;;;;5.72;4.00;;;25.10;76.30;;;;;;5026463;28;20029;-59
2022/08/18 16:17:49;;;;;;;9.15;5.40;;;25.30;76.20;;;;;;5014223;28;20040;-56
2022/08/18 16:20:17;;;;;;;6.32;4.68;;;25.30;76.10;;;;;;5044825;28;20025;-57
2022/08/18 16:22:43;;;;;;;5.55;4.70;;;25.30;76.30;;;;;;5043205;28;20062;-57
2022/08/18 16:25:10;;;;;;;6.03;4.60;;;25.40;76.30;;;;;;5022273;28;20065;-56
2022/08/18 16:27:40;;;;;;;6.18;4.03;;;25.50;75.40;;;;;;5043930;28;20395;-59
2022/08/18 16:30:13;;;;;;;7.70;4.65;;;25.60;74.80;;;;;;5051497;28;20033;-59
2022/08/18 16:32:39;;;;;;;5.85;4.95;;;25.70;74.00;;;;;;5038778;28;20521;-60
2022/08/18 16:35:06;;;;;;;4.60;4.07;;;25.70;74.70;;;;;;5042350;28;20017;-57
2022/08/18 16:37:31;;;;;;;;;;;25.90;73.90;;;;;;5015523;28;20034;-60
2022/08/18 16:39:57;;;;;;;5.53;4.43;;;25.90;73.40;;;;;;5050372;28;20390;-59
2022/08/18 16:42:23;;;;;;;6.43;4.97;;;26.00;73.40;;;;;;5041790;28;20032;-57
2022/08/18 16:44:49;;;;;;;8.83;5.50;;;26.20;72.70;;;;;;5044286;28;20466;-60
2022/08/18 16:47:17;;;;;;;5.30;4.13;;;26.30;72.80;;;;;;5027346;28;20033;-58
2022/08/18 16:49:48;;;;;;;5.80;4.47;;;26.50;72.40;;;;;;5049705;28;20025;-60
2022/08/18 16:52:15;;;;;;;5.40;4.30;;;26.90;71.30;;;;;;5036600;28;20112;-59
2022/08/18 16:54:41;;;;;;;5.63;4.30;;;26.70;69.80;;;;;;5020765;28;20030;-58
2022/08/18 16:57:07;;;;;;;8.05;5.43;;;26.60;70.30;;;;;;5041084;28;20087;-58
2022/08/18 17:05:03;;;;;;;8.70;5.47;;;26.10;71.80;;;;;;5051186;28;20047;-59
2022/08/18 17:07:30;;;;;;;9.20;6.40;;;25.90;72.90;;;;;;5048446;28;20449;-59
2022/08/18 17:09:56;;;;;;;7.88;5.45;;;25.80;73.10;;;;;;5019119;28;20104;-56
2022/08/18 17:12:23;;;;;;;7.90;5.57;;;25.60;74.30;;;;;;5021129;28;20470;-56
2022/08/18 17:14:48;;;;;;;;;;;25.60;74.80;;;;;;5041015;28;20092;-58
2022/08/18 17:17:16;;;;;;;8.68;5.30;;;25.50;75.90;;;;;;5054093;28;19955;-59
2022/08/18 17:19:42;;;;;;;9.18;6.00;;;25.30;75.50;;;;;;5048119;28;20029;-59
2022/08/18 17:22:08;;;;;;;10.48;6.78;;;25.30;76.10;;;;;;5022072;28;20025;-57
2022/08/18 17:24:34;;;;;;;10.37;6.60;;;25.10;76.60;;;;;;5055127;28;20040;-58
2022/08/18 17:27:25;;;;;;;10.77;8.00;;;25.20;76.90;;;;;;5050809;28;20495;-57
2022/08/18 17:29:57;;;;;;;9.40;7.47;;;25.40;76.90;;;;;;5025910;28;20040;-58
2022/08/18 17:32:38;;;;;;;8.68;7.35;;;25.40;76.50;;;;;;5039879;28;20057;-58
2022/08/18 17:35:08;;;;;;;8.45;6.53;;;25.50;78.50;;;;;;5045970;22;20490;-59
2022/08/18 17:37:36;;;;;;;8.55;6.75;;;25.50;76.60;;;;;;5073744;28;20108;-57
2022/08/18 17:40:23;;;;;;;10.60;7.05;;;25.50;76.50;;;;;;5073400;28;20016;-59
2022/08/18 17:42:49;;;;;;;12.35;7.60;;;25.40;76.90;;;;;;5075973;28;20115;-58
2022/08/18 17:45:16;;;;;;;9.48;6.95;;;25.40;77.00;;;;;;5056780;28;20028;-55
2022/08/18 17:47:41;;;;;;;;;;;25.40;77.10;;;;;;5074808;28;20082;-57
2022/08/18 17:53:20;;;;;;;11.52;6.95;;;25.30;77.40;;;;;;5074480;28;20047;-54
2022/08/18 17:55:58;;;;;;;9.48;7.47;;;25.30;77.60;;;;;;5074337;28;20032;-61
2022/08/18 17:58:38;;;;;;;10.15;7.43;;;25.30;78.50;;;;;;5073956;28;20020;-61
2022/08/18 18:01:04;;;;;;;12.43;6.88;;;25.20;78.00;;;;;;5073535;28;20024;-62
2022/08/18 18:03:30;;;;;;;11.80;6.73;;;25.20;78.30;;;;;;5056112;28;20024;-64
2022/08/18 18:06:28;;;;;;;10.02;6.65;;;25.10;78.50;;;;;;5073931;28;20020;-64
2022/08/18 18:09:00;;;;;;;9.63;6.38;;;25.20;79.10;;;;;;5074149;28;20518;-66
2022/08/18 18:11:39;;;;;;;8.63;6.20;;;25.10;78.90;;;;;;5073988;28;20035;-65
2022/08/18 18:14:24;;;;;;;12.38;6.75;;;25.10;79.00;;;;;;5054985;28;20024;-65
2022/08/18 18:17:17;;;;;;;9.15;6.15;;;25.00;78.90;;;;;;5071815;28;20035;-65
2022/08/18 18:19:56;;;;;;;10.65;5.68;;;25.00;79.00;;;;;;5055222;28;20067;-65
2022/08/18 18:22:28;;;;;;;10.10;5.90;;;24.90;79.30;;;;;;5074060;28;20020;-64
2022/08/18 18:25:02;;;;;;;8.00;4.65;;;24.90;81.20;;;;;;5055369;28;20589;-63
2022/08/18 18:27:46;;;;;;;9.85;4.25;;;24.90;79.10;;;;;;5054216;28;20024;-65
2022/08/18 18:30:19;;;;;;;8.80;4.43;;;24.80;79.20;;;;;;5072237;28;20024;-65
2022/08/18 18:32:50;;;;;;;9.65;4.57;;;24.70;79.40;;;;;;5065502;28;20044;-65
2022/08/18 18:35:25;;;;;;;8.20;4.32;;;24.60;79.20;;;;;;5062981;28;20070;-65
2022/08/18 18:37:58;;;;;;;11.75;3.00;;;24.50;79.80;;;;;;5052442;28;20437;-65
2022/08/18 18:40:31;;;;;;;10.93;3.70;;;24.50;79.10;;;;;;5063780;28;20024;-66
2022/08/18 18:43:19;;;;;;;8.43;2.80;;;24.50;79.60;;;;;;5068520;28;20043;-65
2022/08/18 18:46:21;;;;;;;10.30;2.40;;;24.40;79.10;;;;;;5070131;28;20028;-65
2022/08/18 18:49:13;;;;;;;8.65;3.25;;;24.30;79.20;;;;;;5056108;28;20033;-66
2022/08/18 18:51:59;;;;;;;7.35;2.83;;;24.20;79.50;;;;;;5046375;28;20488;-66
2022/08/18 18:54:48;;;;;;;7.72;2.65;;;24.20;79.60;;;;;;5061869;28;20031;-66
2022/08/18 18:57:23;;;;;;;11.13;2.70;;;24.10;79.50;;;;;;5067291;28;20486;-63
2022/08/18 18:59:58;;;;;;;7.68;2.90;;;24.10;80.10;;;;;;5067642;28;20029;-66
2022/08/18 19:02:41;;;;;;;9.35;3.20;;;24.00;80.00;;;;;;5065636;28;20032;-66
2022/08/18 19:05:36;;;;;;;14.02;3.58;;;24.00;80.30;;;;;;5062448;28;20490;-66
2022/08/18 19:08:47;;;;;;;9.70;2.75;;;24.00;80.40;;;;;;5028931;28;20127;-68
2022/08/18 19:11:28;;;;;;;8.07;2.55;;;24.00;80.30;;;;;;5051892;28;20105;-67
2022/08/18 19:14:06;;;;;;;13.52;3.38;;;23.90;80.40;;;;;;5070387;28;20017;-66
2022/08/18 19:16:52;;;;;;;8.77;2.85;;;23.80;80.60;;;;;;5058836;28;20435;-66
2022/08/18 19:19:29;;;;;;;8.73;3.17;;;23.70;81.00;;;;;;5045356;28;20032;-68
2022/08/18 19:22:34;;;;;;;14.35;3.28;;;23.70;81.10;;;;;;5045137;28;20029;-67
2022/08/18 19:25:22;;;;;;;8.52;3.30;;;23.70;81.60;;;;;;5017462;28;20151;-68
2022/08/18 19:28:00;;;;;;;7.28;2.53;;;23.70;81.60;;;;;;5062087;28;20025;-69
2022/08/18 19:30:31;;;;;;;8.52;2.90;;;23.60;82.20;;;;;;5045981;28;20451;-66
2022/08/18 19:33:03;;;;;;;11.13;3.17;;;23.60;82.30;;;;;;5064140;28;20025;-67
2022/08/18 19:35:55;;;;;;;13.95;3.30;;;23.60;82.20;;;;;;5054025;28;20539;-65
2022/08/18 19:38:36;;;;;;;7.72;3.33;;;23.50;82.70;;;;;;5062089;28;20052;-67
2022/08/18 19:41:15;;;;;;;15.13;3.10;;;23.60;82.50;;;;;;5065756;28;20017;-66
2022/08/18 19:43:50;;;;;;;7.25;2.90;;;23.60;82.50;;;;;;5062648;28;20035;-65
2022/08/18 19:46:35;;;;;;;7.15;2.90;;;23.60;82.40;;;;;;5066331;28;20037;-68
2022/08/18 19:49:25;;;;;;;10.43;3.33;;;23.60;82.50;;;;;;5044609;28;20032;-66
2022/08/18 19:52:03;;;;;;;7.32;2.90;;;23.60;82.60;;;;;;5069042;28;20367;-67
2022/08/18 19:54:41;;;;;;;;;;;23.50;82.70;;;;;;5067183;28;20035;-66
2022/08/18 19:57:21;;;;;;;17.33;3.50;;;23.50;82.80;;;;;;5048487;28;19912;-68
2022/08/18 20:00:10;;;;;;;10.52;3.38;;;23.50;82.80;;;;;;5068487;28;20267;-66
2022/08/18 20:02:44;;;;;;;11.32;3.45;;;23.40;83.00;;;;;;5067377;28;20066;-66
2022/08/18 20:05:25;;;;;;;8.45;3.20;;;23.40;83.10;;;;;;5068002;28;20032;-68
2022/08/18 20:08:09;;;;;;;5.97;3.10;;;23.40;83.30;;;;;;5061899;28;20563;-68
2022/08/18 20:10:40;;;;;;;13.20;3.33;;;23.30;83.40;;;;;;5069861;28;20033;-66
2022/08/18 20:13:26;;;;;;;8.57;3.40;;;23.30;83.30;;;;;;5067156;28;20655;-66
2022/08/18 20:16:10;;;;;;;8.38;3.25;;;23.20;83.90;;;;;;5066728;28;20021;-66
2022/08/18 20:18:48;;;;;;;7.97;3.38;;;23.20;84.20;;;;;;5068756;28;20096;-68
2022/08/18 20:21:14;;;;;;;8.25;3.25;;;23.10;84.10;;;;;;5046492;28;20032;-68
2022/08/18 20:23:55;;;;;;;9.02;3.95;;;23.10;83.90;;;;;;5064662;28;20106;-68
2022/08/18 20:26:36;;;;;;;9.57;3.22;;;23.20;84.30;;;;;;5048184;28;20032;-68
2022/08/18 20:29:11;;;;;;;13.57;4.03;;;23.10;84.50;;;;;;5047573;28;20036;-65
2022/08/18 20:32:04;;;;;;;7.65;3.75;;;23.10;84.50;;;;;;5069240;28;20040;-69
2022/08/18 20:34:33;;;;;;;21.02;12.50;;;23.10;84.40;;;;;;5067373;28;20391;-68
2022/08/18 20:37:07;;;;;;;11.68;4.40;;;23.10;84.10;;;;;;5064574;28;20537;-62
2022/08/18 20:39:55;;;;;;;12.70;4.43;;;23.20;84.00;;;;;;5068001;28;20033;-62
2022/08/18 20:42:20;;;;;;;13.65;4.60;;;23.20;83.90;;;;;;5044351;28;20040;-59
2022/08/18 20:44:50;;;;;;;7.87;4.77;;;23.20;85.00;;;;;;5055564;28;20020;-58
2022/08/18 20:47:53;;;;;;;7.97;3.97;;;23.10;83.90;;;;;;5066327;28;20451;-59
2022/08/18 20:50:44;;;;;;;9.95;5.35;;;23.10;84.00;;;;;;5061910;28;20448;-61
2022/08/18 20:53:44;;;;;;;12.77;6.00;;;23.10;84.00;;;;;;5057678;28;20048;-62
2022/08/18 20:56:13;;;;;;;11.73;5.25;;;23.10;84.50;;;;;;5062862;28;20032;-60
2022/08/18 20:58:54;;;;;;;9.98;4.07;;;23.10;84.30;;;;;;5044918;28;20033;-60
2022/08/18 21:01:24;;;;;;;9.82;4.28;;;23.10;84.30;;;;;;5059538;28;20020;-60
2022/08/18 21:03:50;;;;;;;7.13;4.15;;;23.10;84.10;;;;;;5065989;28;20380;-59
